createdAt,value
2023-02-27T00:03:38.934Z,0.14
2023-02-27T00:08:40.609Z,-0.07
2023-02-27T00:13:42.132Z,-0.30
2023-02-27T00:18:43.641Z,0.14
2023-02-27T00:23:45.204Z,-0.06
2023-02-27T00:28:46.747Z,-0.19
2023-02-27T00:33:48.219Z,-0.26
2023-02-27T00:38:49.753Z,-0.20
2023-02-27T00:43:51.330Z,-0.13
2023-02-27T00:48:52.793Z,-0.46
2023-02-27T00:53:54.226Z,-0.18
2023-02-27T00:58:55.810Z,-0.55
2023-02-27T01:03:57.428Z,-0.40
2023-02-27T01:08:58.836Z,-0.30
2023-02-27T01:14:03.868Z,-0.38
2023-02-27T01:19:05.313Z,-0.50
2023-02-27T01:24:06.896Z,-0.28
2023-02-27T01:29:08.470Z,-0.54
2023-02-27T01:34:09.919Z,-0.45
2023-02-27T01:39:11.498Z,-0.63
2023-02-27T01:44:14.528Z,-0.75
2023-02-27T01:49:21.094Z,-0.61
2023-02-27T01:54:26.045Z,-0.44
2023-02-27T01:59:30.660Z,-0.83
2023-02-27T02:04:36.324Z,-0.56
2023-02-27T02:09:41.770Z,-0.92
2023-02-27T02:14:43.797Z,-0.66
2023-02-27T02:20:07.169Z,-0.97
2023-02-27T02:25:17.472Z,-0.71
2023-02-27T02:30:46.787Z,-0.94
2023-02-27T02:35:53.913Z,-0.81
2023-02-27T02:41:01.274Z,-1.09
2023-02-27T02:46:18.436Z,-1.06
2023-02-27T02:51:37.158Z,-0.94
2023-02-27T02:56:53.887Z,-0.98
2023-02-27T03:02:09.006Z,-0.95
2023-02-27T03:07:23.558Z,-1.11
2023-02-27T03:12:30.702Z,-0.98
2023-02-27T03:17:35.077Z,-1.06
2023-02-27T03:22:40.349Z,-1.00
2023-02-27T03:27:48.732Z,-1.10
2023-02-27T03:33:01.941Z,-1.16
2023-02-27T03:38:15.657Z,-1.20
2023-02-27T03:43:27.376Z,-1.38
2023-02-27T03:48:29.534Z,-1.39
2023-02-27T03:53:57.152Z,-1.17
2023-02-27T03:58:58.949Z,-1.18
2023-02-27T04:04:14.861Z,-1.50
2023-02-27T04:09:48.384Z,-1.20
2023-02-27T04:15:03.914Z,-1.60
2023-02-27T04:20:29.117Z,-1.70
2023-02-27T04:26:05.946Z,-1.46
2023-02-27T04:31:27.677Z,-1.56
2023-02-27T04:36:47.892Z,-1.39
2023-02-27T04:42:11.205Z,-1.79
2023-02-27T04:47:16.250Z,-1.41
2023-02-27T04:52:27.550Z,-1.53
2023-02-27T04:57:41.388Z,-1.57
2023-02-27T05:02:47.553Z,-1.56
2023-02-27T05:08:03.172Z,-1.84
2023-02-27T05:13:12.910Z,-1.69
2023-02-27T05:18:19.136Z,-1.64
2023-02-27T05:23:32.704Z,-1.88
2023-02-27T05:28:41.971Z,-2.09
2023-02-27T05:34:06.337Z,-2.16
2023-02-27T05:39:10.451Z,-1.84
2023-02-27T05:44:23.791Z,-1.81
2023-02-27T05:49:33.596Z,-1.87
2023-02-27T05:54:53.041Z,-2.13
2023-02-27T06:00:16.000Z,-2.01
2023-02-27T06:05:19.188Z,-2.16
2023-02-27T06:10:22.457Z,-2.17
2023-02-27T06:15:24.085Z,-2.14
2023-02-27T06:20:25.609Z,-2.14
2023-02-27T06:25:27.403Z,-2.05
2023-02-27T06:30:29.197Z,-2.22
2023-02-27T06:35:30.953Z,-1.99
2023-02-27T06:40:32.656Z,-2.00
2023-02-27T06:45:34.146Z,-2.31
2023-02-27T06:50:35.825Z,-2.12
2023-02-27T06:55:37.377Z,-2.00
2023-02-27T07:00:38.937Z,-1.79
2023-02-27T07:05:41.999Z,-2.00
2023-02-27T07:10:46.710Z,-1.63
2023-02-27T07:15:48.461Z,-1.90
2023-02-27T07:20:51.657Z,-2.39
2023-02-27T07:25:53.156Z,-1.60
2023-02-27T07:30:55.427Z,-1.60
2023-02-27T07:35:57.010Z,-0.57
2023-02-27T07:40:58.566Z,0.10
2023-02-27T07:46:00.015Z,0.73
2023-02-27T07:51:01.976Z,1.06
2023-02-27T07:56:03.627Z,1.85
2023-02-27T08:01:05.517Z,1.18
2023-02-27T08:06:07.174Z,1.90
2023-02-27T08:11:08.885Z,1.70
2023-02-27T08:16:10.391Z,2.41
2023-02-27T08:21:11.863Z,3.05
2023-02-27T08:26:13.944Z,2.99
2023-02-27T08:31:17.153Z,3.38
2023-02-27T08:36:18.680Z,3.36
2023-02-27T08:41:20.366Z,3.71
2023-02-27T08:46:21.866Z,3.69
2023-02-27T08:51:23.593Z,3.63
2023-02-27T08:56:26.206Z,3.41
2023-02-27T09:01:28.448Z,3.90
2023-02-27T09:06:31.891Z,3.73
2023-02-27T09:11:33.807Z,4.11
2023-02-27T09:16:35.520Z,3.94
2023-02-27T09:21:37.045Z,4.05
2023-02-27T09:26:45.224Z,4.19
2023-02-27T09:31:47.636Z,4.11
2023-02-27T09:36:49.199Z,4.22
2023-02-27T09:42:05.327Z,4.43
2023-02-27T09:47:19.295Z,4.58
2023-02-27T09:52:20.937Z,4.88
2023-02-27T09:57:40.925Z,5.01
2023-02-27T10:02:42.448Z,4.91
2023-02-27T10:07:59.498Z,4.80
2023-02-27T10:13:28.943Z,5.19
2023-02-27T10:18:35.567Z,5.58
2023-02-27T10:23:58.075Z,4.73
2023-02-27T10:29:11.911Z,4.46
2023-02-27T10:34:15.593Z,5.03
2023-02-27T10:39:19.028Z,4.61
2023-02-27T10:44:20.566Z,4.63
2023-02-27T10:49:22.266Z,4.48
2023-02-27T10:54:25.585Z,4.56
2023-02-27T10:59:28.518Z,4.50
2023-02-27T11:04:47.004Z,4.25
2023-02-27T11:10:04.738Z,4.07
2023-02-27T11:15:15.423Z,4.25
2023-02-27T11:20:38.821Z,4.19
2023-02-27T11:25:40.755Z,4.39
2023-02-27T11:30:43.382Z,4.25
2023-02-27T11:35:50.993Z,4.07
2023-02-27T11:41:00.687Z,4.09
2023-02-27T11:46:35.596Z,3.98
2023-02-27T11:51:50.555Z,4.09
2023-02-27T11:57:05.886Z,4.74
2023-02-27T12:02:45.127Z,4.63
2023-02-27T12:07:54.154Z,4.63
2023-02-27T12:13:01.930Z,4.75
2023-02-27T12:18:24.710Z,4.30
2023-02-27T12:23:34.259Z,4.51
2023-02-27T12:28:52.960Z,4.60
2023-02-27T12:34:05.087Z,4.75
2023-02-27T12:39:18.800Z,4.47
2023-02-27T12:44:45.178Z,4.45
2023-02-27T12:49:56.298Z,4.73
2023-02-27T12:55:15.414Z,5.02
2023-02-27T13:00:22.846Z,4.60
2023-02-27T13:05:39.017Z,4.98
2023-02-27T13:11:05.251Z,5.27
2023-02-27T13:16:19.885Z,4.61
2023-02-27T13:21:24.137Z,5.01
2023-02-27T13:26:28.619Z,5.18
2023-02-27T13:31:37.713Z,5.13
2023-02-27T13:36:50.759Z,5.00
2023-02-27T13:41:52.443Z,4.99
2023-02-27T13:46:53.904Z,5.49
2023-02-27T13:51:56.574Z,5.59
2023-02-27T13:57:18.757Z,5.28
2023-02-27T14:02:46.584Z,5.21
2023-02-27T14:08:16.333Z,5.51
2023-02-27T14:13:45.667Z,5.49
2023-02-27T14:18:54.629Z,5.57
2023-02-27T14:23:56.321Z,5.33
2023-02-27T14:28:57.975Z,5.37
2023-02-27T14:34:02.225Z,5.42
2023-02-27T14:39:04.377Z,5.63
2023-02-27T14:44:17.548Z,5.69
2023-02-27T14:49:22.399Z,5.52
2023-02-27T14:54:25.957Z,5.44
2023-02-27T14:59:36.120Z,5.08
2023-02-27T15:04:37.778Z,5.27
2023-02-27T15:09:43.317Z,5.18
2023-02-27T15:14:50.721Z,5.13
2023-02-27T15:19:55.262Z,5.34
2023-02-27T15:24:58.012Z,5.05
2023-02-27T15:30:00.459Z,4.84
2023-02-27T15:35:05.670Z,4.93
2023-02-27T15:40:15.562Z,4.76
2023-02-27T15:45:19.929Z,4.92
2023-02-27T15:50:42.540Z,4.78
2023-02-27T15:55:56.129Z,4.90
2023-02-27T16:01:03.589Z,4.67
2023-02-27T16:06:17.703Z,4.77
2023-02-27T16:11:29.949Z,4.74
2023-02-27T16:16:36.828Z,4.72
2023-02-27T16:21:38.362Z,4.74
2023-02-27T16:26:40.067Z,4.74
2023-02-27T16:31:47.911Z,4.48
2023-02-27T16:36:55.722Z,4.57
2023-02-27T16:41:59.608Z,4.77
2023-02-27T16:47:01.021Z,4.71
2023-02-27T16:52:02.830Z,4.77
2023-02-27T16:57:04.622Z,4.62
2023-02-27T17:02:11.765Z,4.60
2023-02-27T17:07:15.858Z,4.69
2023-02-27T17:12:17.433Z,4.71
2023-02-27T17:17:19.483Z,4.65
2023-02-27T17:22:20.987Z,4.56
2023-02-27T17:27:22.493Z,4.62
2023-02-27T17:32:24.236Z,4.60
2023-02-27T17:37:26.095Z,4.54
2023-02-27T17:42:27.498Z,4.40
2023-02-27T17:47:28.995Z,4.51
2023-02-27T17:52:30.597Z,4.50
2023-02-27T17:57:35.256Z,4.35
2023-02-27T18:02:36.841Z,4.24
2023-02-27T18:07:38.567Z,4.41
2023-02-27T18:12:40.222Z,4.37
2023-02-27T18:17:43.455Z,4.27
2023-02-27T18:22:44.887Z,4.14
2023-02-27T18:27:46.605Z,4.17
2023-02-27T18:32:48.553Z,4.08
2023-02-27T18:37:50.037Z,3.90
2023-02-27T18:42:52.042Z,3.91
2023-02-27T18:47:53.713Z,3.71
2023-02-27T18:52:55.225Z,3.50
2023-02-27T18:57:56.678Z,3.40
2023-02-27T19:02:58.251Z,3.17
2023-02-27T19:08:04.862Z,3.26
2023-02-27T19:13:06.970Z,3.06
2023-02-27T19:18:08.617Z,3.05
2023-02-27T19:23:10.371Z,3.09
2023-02-27T19:28:12.072Z,2.96
2023-02-27T19:33:15.922Z,3.04
2023-02-27T19:38:17.452Z,2.76
2023-02-27T19:43:19.037Z,2.49
2023-02-27T19:48:20.692Z,2.44
2023-02-27T19:53:22.152Z,2.59
2023-02-27T19:58:23.675Z,2.23
2023-02-27T20:03:34.279Z,2.19
2023-02-27T20:08:35.845Z,2.22
2023-02-27T20:13:37.423Z,2.24
2023-02-27T20:18:41.357Z,2.25
2023-02-27T20:23:44.736Z,2.23
2023-02-27T20:28:48.051Z,2.36
2023-02-27T20:33:50.473Z,2.19
2023-02-27T20:38:51.968Z,2.25
2023-02-27T20:43:53.710Z,2.03
2023-02-27T20:48:56.896Z,2.08
2023-02-27T20:53:59.916Z,1.84
2023-02-27T20:59:04.136Z,1.91
2023-02-27T21:04:06.852Z,2.00
2023-02-27T21:09:08.628Z,2.00
2023-02-27T21:14:11.426Z,1.87
2023-02-27T21:19:12.874Z,1.84
2023-02-27T21:24:16.431Z,1.79
2023-02-27T21:29:20.785Z,1.58
2023-02-27T21:34:24.953Z,1.56
2023-02-27T21:39:27.739Z,1.74
2023-02-27T21:44:29.177Z,1.55
2023-02-27T21:49:30.694Z,1.65
2023-02-27T21:54:32.409Z,1.62
2023-02-27T21:59:36.611Z,1.65
2023-02-27T22:04:43.253Z,1.76
2023-02-27T22:09:44.840Z,1.66
2023-02-27T22:14:51.869Z,1.87
2023-02-27T22:19:54.138Z,1.65
2023-02-27T22:24:55.710Z,1.72
2023-02-27T22:29:57.172Z,1.80
2023-02-27T22:34:58.895Z,1.86
2023-02-27T22:40:00.474Z,1.85
2023-02-27T22:45:01.960Z,1.83
2023-02-27T22:50:04.502Z,1.85
2023-02-27T22:55:06.591Z,1.76
2023-02-27T23:00:08.951Z,1.80
2023-02-27T23:05:10.792Z,1.84
2023-02-27T23:10:12.279Z,1.77
2023-02-27T23:15:13.792Z,1.76
2023-02-27T23:20:15.372Z,1.60
2023-02-27T23:25:16.922Z,1.79
2023-02-27T23:30:18.673Z,1.49
2023-02-27T23:35:20.259Z,1.48
2023-02-27T23:40:23.851Z,1.52
2023-02-27T23:45:25.510Z,1.30
2023-02-27T23:50:29.807Z,1.52
2023-02-27T23:55:34.838Z,1.22
